Time;durP1;ratioP1;P1;durP2;ratioP2;P2;SDS_P1;SDS_P2;PMS_P1;PMS_P2;Temp;Humidity;BMP_temperature;BMP_pressure;BME280_temperature;BME280_humidity;BME280_pressure;Samples;Min_cycle;Max_cycle;Signal;HPM_P1;HPM_P2
2021/07/03 00:02:14;;;;;;;12.75;11.48;;;;;;;19.31;100.00;101395.55;1954361;72;28546;-75
2021/07/03 00:07:38;;;;;;;11.63;10.50;;;;;;;19.27;100.00;101408.63;1971015;72;31460;-75
2021/07/03 00:13:04;;;;;;;11.93;10.70;;;;;;;19.11;100.00;101401.83;1970745;73;31014;-73
2021/07/03 00:18:28;;;;;;;11.60;10.40;;;;;;;18.99;100.00;101400.25;1970952;72;30955;-73
2021/07/03 00:23:53;;;;;;;11.73;10.53;;;;;;;18.66;100.00;101385.73;1970617;73;31025;-75
2021/07/03 00:29:17;;;;;;;12.37;11.00;;;;;;;18.49;100.00;101394.09;1970798;73;30956;-75
2021/07/03 00:34:42;;;;;;;13.60;10.97;;;;;;;18.60;100.00;101396.34;1970740;72;33399;-75
2021/07/03 00:40:08;;;;;;;11.73;10.50;;;;;;;18.54;100.00;101401.02;1970668;73;31165;-76
2021/07/03 00:45:32;;;;;;;11.30;10.10;;;;;;;18.66;100.00;101398.41;1970726;72;30983;-77
2021/07/03 00:50:58;;;;;;;10.70;9.60;;;;;;;18.66;100.00;101392.77;1970828;72;30997;-77
2021/07/03 00:56:25;;;;;;;12.03;9.87;;;;;;;18.34;100.00;101384.12;1970801;73;33512;-75
2021/07/03 01:02:11;;;;;;;8.73;7.83;;;;;;;18.27;100.00;101386.55;1946469;74;31637;-76
2021/07/03 01:07:36;;;;;;;8.73;7.33;;;;;;;18.23;100.00;101386.15;1970994;72;31545;-77
2021/07/03 01:13:01;;;;;;;7.93;6.87;;;;;;;18.29;100.00;101383.42;1970617;73;30972;-74
2021/07/03 01:18:31;;;;;;;8.70;7.80;;;;;;;18.27;100.00;101369.67;1970877;72;30978;-76
2021/07/03 01:23:57;;;;;;;8.03;6.77;;;;;;;18.04;100.00;101374.55;1970928;73;30939;-76
2021/07/03 01:29:24;;;;;;;9.50;8.13;;;;;;;18.11;100.00;101365.64;1971350;72;31451;-74
2021/07/03 01:34:49;;;;;;;12.57;8.57;;;;;;;18.03;100.00;101355.19;1970874;72;30971;-76
2021/07/03 01:40:15;;;;;;;10.03;8.17;;;;;;;18.03;100.00;101358.83;1970708;72;30998;-74
2021/07/03 01:45:39;;;;;;;9.07;8.17;;;;;;;18.08;100.00;101353.07;1970750;72;31504;-76
2021/07/03 01:51:04;;;;;;;9.60;8.43;;;;;;;17.97;100.00;101347.45;1970775;73;30955;-74
2021/07/03 01:56:28;;;;;;;9.77;8.00;;;;;;;17.88;100.00;101342.39;1970808;73;31005;-75
2021/07/03 02:01:53;;;;;;;8.67;7.87;;;;;;;17.98;100.00;101344.91;1970840;73;33406;-76
2021/07/03 02:07:21;;;;;;;10.17;8.40;;;;;;;17.88;100.00;101348.02;1970626;72;33399;-74
2021/07/03 02:12:45;;;;;;;9.53;8.33;;;;;;;17.82;100.00;101333.00;1970591;72;30995;-76
2021/07/03 02:18:10;;;;;;;10.10;8.50;;;;;;;17.85;100.00;101326.72;1970390;73;33033;-74
2021/07/03 02:23:33;;;;;;;12.27;10.47;;;;;;;17.72;100.00;101325.09;1970789;72;31497;-76
2021/07/03 02:28:57;;;;;;;9.70;8.77;;;;;;;17.71;100.00;101319.21;1970674;72;30993;-76
2021/07/03 02:34:22;;;;;;;10.07;8.63;;;;;;;17.62;100.00;101302.91;1970571;73;30977;-76
2021/07/03 02:39:46;;;;;;;10.57;9.10;;;;;;;17.52;100.00;101305.11;1970706;72;33373;-74
2021/07/03 02:45:14;;;;;;;9.53;8.53;;;;;;;17.64;100.00;101294.13;1970693;72;31057;-74
2021/07/03 02:50:39;;;;;;;10.87;9.33;;;;;;;17.71;100.00;101302.95;1970896;72;33351;-76
2021/07/03 02:56:04;;;;;;;10.17;8.83;;;;;;;17.55;100.00;101294.63;1970556;73;30943;-76
2021/07/03 03:01:30;;;;;;;10.13;8.67;;;;;;;17.52;100.00;101293.30;1970686;72;30919;-74
2021/07/03 03:06:55;;;;;;;11.20;9.07;;;;;;;17.56;100.00;101280.27;1970606;73;31586;-74
2021/07/03 03:12:22;;;;;;;11.07;9.87;;;;;;;17.64;100.00;101278.69;1971019;73;31486;-74
2021/07/03 03:18:06;;;;;;;12.27;9.90;;;;;;;17.59;100.00;101272.62;1946387;74;31038;-76
2021/07/03 03:23:30;;;;;;;11.57;10.37;;;;;;;17.55;100.00;101258.94;1970928;72;31495;-74
2021/07/03 03:28:55;;;;;;;11.63;10.27;;;;;;;17.70;100.00;101267.00;1970889;72;33481;-73
2021/07/03 03:34:19;;;;;;;13.00;10.50;;;;;;;17.59;100.00;101275.44;1970708;72;31107;-74
2021/07/03 03:39:43;;;;;;;12.40;11.13;;;;;;;17.52;100.00;101266.61;1970655;72;31678;-74
2021/07/03 03:45:10;;;;;;;14.77;11.50;;;;;;;17.51;100.00;101254.28;1970615;72;31072;-75
2021/07/03 03:50:35;;;;;;;12.57;11.17;;;;;;;17.70;100.00;101266.16;1970725;72;31114;-75
2021/07/03 03:56:00;;;;;;;12.30;10.37;;;;;;;17.63;100.00;101276.45;1970691;73;31007;-74
2021/07/03 04:01:24;;;;;;;11.23;10.00;;;;;;;17.70;100.00;101269.81;1913604;73;39512;-74
2021/07/03 04:06:49;;;;;;;14.87;10.80;;;;;;;17.71;100.00;101267.22;1970711;73;31516;-74
2021/07/03 04:12:13;;;;;;;11.73;10.40;;;;;;;17.70;100.00;101263.36;1970514;72;31579;-74
2021/07/03 04:17:37;;;;;;;9.27;8.37;;;;;;;17.72;100.00;101255.42;1970706;73;31484;-76
2021/07/03 04:23:03;;;;;;;9.03;8.03;;;;;;;17.78;100.00;101260.33;1970851;73;31543;-74
2021/07/03 04:28:27;;;;;;;7.63;6.83;;;;;;;17.76;100.00;101253.61;1970898;72;30982;-74
2021/07/03 04:33:52;;;;;;;8.50;6.97;;;;;;;17.79;100.00;101262.83;1970775;72;33013;-74
2021/07/03 04:39:16;;;;;;;8.30;7.60;;;;;;;17.84;100.00;101254.22;1970662;73;31040;-76
2021/07/03 04:44:40;;;;;;;9.10;7.50;;;;;;;17.84;100.00;101248.60;1970656;72;30972;-74
2021/07/03 04:50:06;;;;;;;7.37;6.67;;;;;;;17.77;100.00;101246.85;1970507;73;30986;-73
2021/07/03 04:55:31;;;;;;;8.33;7.53;;;;;;;17.85;100.00;101246.05;1970639;72;31107;-75
2021/07/03 05:00:56;;;;;;;8.40;7.60;;;;;;;17.94;100.00;101254.52;1970761;73;31444;-74
2021/07/03 05:06:21;;;;;;;8.50;7.70;;;;;;;17.94;100.00;101260.97;1970474;72;30952;-75
2021/07/03 05:11:45;;;;;;;8.27;7.47;;;;;;;18.04;100.00;101254.23;1970619;73;31489;-78
2021/07/03 05:17:10;;;;;;;7.73;6.83;;;;;;;17.98;100.00;101254.95;1970766;72;30946;-71
2021/07/03 05:22:34;;;;;;;8.63;7.73;;;;;;;18.09;100.00;101256.33;1936033;73;31026;-71
2021/07/03 05:27:58;;;;;;;8.40;7.60;;;;;;;18.14;100.00;101232.86;1970888;73;30924;-71
2021/07/03 05:33:24;;;;;;;8.07;7.13;;;;;;;18.24;100.00;101233.94;1970839;73;31489;-73
2021/07/03 05:38:49;;;;;;;7.97;7.17;;;;;;;18.28;100.00;101229.31;1970674;72;30991;-76
2021/07/03 05:44:14;;;;;;;8.90;8.00;;;;;;;18.35;100.00;101259.79;1970810;72;31472;-72
2021/07/03 05:49:38;;;;;;;7.90;6.80;;;;;;;18.17;100.00;101252.72;1970558;73;31144;-76
2021/07/03 05:55:04;;;;;;;7.37;6.60;;;;;;;18.15;100.00;101263.44;1970735;73;30977;-71
2021/07/03 06:00:28;;;;;;;7.10;6.40;;;;;;;18.18;100.00;101253.55;1970761;73;31458;-78
2021/07/03 06:05:52;;;;;;;7.33;6.63;;;;;;;18.21;100.00;101257.10;1970771;72;30993;-75
2021/07/03 06:11:17;;;;;;;6.73;6.03;;;;;;;18.11;100.00;101245.57;1970876;73;33470;-77
2021/07/03 06:16:42;;;;;;;6.97;6.27;;;;;;;18.13;100.00;101242.45;1970871;72;32205;-74
2021/07/03 06:22:09;;;;;;;7.20;6.50;;;;;;;18.15;100.00;101224.66;1944687;73;31005;-72
2021/07/03 06:27:33;;;;;;;6.97;6.03;;;;;;;18.30;100.00;101246.70;1970733;73;31018;-72
2021/07/03 06:32:57;;;;;;;7.30;6.40;;;;;;;18.20;100.00;101228.16;1970532;72;31002;-75
2021/07/03 06:38:22;;;;;;;6.90;6.30;;;;;;;18.26;100.00;101233.05;1970817;72;31470;-73
2021/07/03 06:43:47;;;;;;;9.53;7.70;;;;;;;18.34;100.00;101235.05;1970770;72;31023;-75
2021/07/03 06:49:11;;;;;;;7.53;6.83;;;;;;;18.33;100.00;101231.15;1971034;73;30926;-78
2021/07/03 06:54:36;;;;;;;7.87;7.07;;;;;;;18.42;100.00;101222.15;1971058;72;31623;-78
2021/07/03 07:00:01;;;;;;;7.27;6.57;;;;;;;18.34;100.00;101227.19;1970718;72;31471;-73
2021/07/03 07:05:25;;;;;;;8.27;7.43;;;;;;;18.50;100.00;101231.17;1971073;72;31030;-79
2021/07/03 07:10:49;;;;;;;8.37;7.53;;;;;;;18.42;100.00;101235.64;1970539;73;31041;-75
2021/07/03 07:16:14;;;;;;;9.77;7.90;;;;;;;18.61;100.00;101248.03;1970974;72;31549;-72
2021/07/03 07:21:39;;;;;;;9.83;8.00;;;;;;;18.62;100.00;101258.11;1970664;72;31509;-73
2021/07/03 07:27:03;;;;;;;9.17;6.60;;;;;;;18.65;100.00;101254.05;1970820;72;30929;-73
2021/07/03 07:32:27;;;;;;;8.67;7.87;;;;;;;18.59;100.00;101246.12;1970875;72;31418;-74
2021/07/03 07:37:53;;;;;;;8.27;7.50;;;;;;;18.68;100.00;101253.98;1970929;72;31519;-73
2021/07/03 07:43:18;;;;;;;7.77;6.97;;;;;;;18.71;100.00;101257.55;1970765;72;31102;-78
2021/07/03 07:48:42;;;;;;;9.03;7.23;;;;;;;18.69;100.00;101259.88;1970833;72;31050;-79
2021/07/03 07:54:07;;;;;;;8.30;7.47;;;;;;;18.74;100.00;101257.48;1970686;72;33439;-75
2021/07/03 07:59:31;;;;;;;7.93;6.90;;;;;;;18.76;100.00;101246.70;1970928;72;31425;-73
2021/07/03 08:04:55;;;;;;;7.97;6.87;;;;;;;18.76;100.00;101243.31;1970439;72;31305;-79
2021/07/03 08:10:21;;;;;;;8.73;7.57;;;;;;;18.72;100.00;101233.87;1970376;72;30983;-79
2021/07/03 08:15:45;;;;;;;8.13;7.33;;;;;;;18.94;100.00;101234.30;1970776;72;30965;-73
2021/07/03 08:21:09;;;;;;;8.63;7.17;;;;;;;19.02;100.00;101224.43;1956819;73;31039;-73
2021/07/03 08:26:34;;;;;;;8.97;6.37;;;;;;;19.02;100.00;101216.56;1971267;72;31429;-73
2021/07/03 08:31:58;;;;;;;11.70;9.50;;;;;;;18.91;100.00;101218.08;1970605;73;31101;-78
2021/07/03 08:37:23;;;;;;;11.97;9.73;;;;;;;18.91;100.00;101216.06;1970999;73;31447;-79
2021/07/03 08:42:48;;;;;;;13.03;9.67;;;;;;;18.90;100.00;101234.13;1970756;72;30986;-74
2021/07/03 08:48:16;;;;;;;11.43;9.60;;;;;;;19.05;100.00;101236.42;1970961;72;31495;-79
2021/07/03 08:53:42;;;;;;;13.17;9.47;;;;;;;19.20;100.00;101237.08;1970689;72;31442;-80
2021/07/03 08:59:17;;;;;;;11.13;9.57;;;;;;;19.45;100.00;101237.63;1970529;72;31039;-75
2021/07/03 09:04:45;;;;;;;12.90;9.23;;;;;;;19.52;100.00;101233.13;1972019;72;31061;-77
2021/07/03 09:10:12;;;;;;;9.90;8.60;;;;;;;19.79;100.00;101227.66;1971049;73;31037;-77
2021/07/03 09:15:39;;;;;;;10.77;8.23;;;;;;;19.97;100.00;101223.59;1970898;73;33672;-73
2021/07/03 09:21:06;;;;;;;8.63;7.47;;;;;;;20.07;100.00;101229.41;1957473;72;31106;-78
2021/07/03 09:26:31;;;;;;;8.00;7.17;;;;;;;20.42;100.00;101223.01;1970514;72;31029;-77
2021/07/03 09:31:56;;;;;;;8.40;7.13;;;;;;;20.73;100.00;101219.79;1970676;72;30964;-74
2021/07/03 09:37:15;;;;;;;7.97;6.90;;;;;;;20.62;100.00;101220.81;1936229;73;31267;-78
2021/07/03 09:42:42;;;;;;;8.33;7.43;;;;;;;20.79;100.00;101206.52;1970949;72;30996;-72
2021/07/03 09:48:14;;;;;;;7.80;7.03;;;;;;;21.14;100.00;101209.05;1970634;73;31697;-78
2021/07/03 09:53:39;;;;;;;8.90;8.10;;;;;;;21.17;100.00;101208.38;1970414;72;30990;-77
2021/07/03 09:59:04;;;;;;;8.63;7.70;;;;;;;21.11;100.00;101202.66;1970732;72;30952;-72
2021/07/03 10:04:29;;;;;;;8.77;7.80;;;;;;;20.92;100.00;101206.02;1970694;73;30977;-78
2021/07/03 10:12:46;;;;;;;8.73;7.83;;;;;;;20.56;100.00;101217.94;1975799;72;30785;-75
2021/07/03 10:15:17;;;;;;;9.17;8.27;;;;;;;20.46;100.00;101215.50;1950543;73;24242;-71
2021/07/03 10:17:47;;;;;;;9.03;8.20;;;;;;;20.47;100.00;101222.81;1948769;73;24168;-75
2021/07/03 10:23:13;;;;;;;9.40;8.50;;;;;;;20.59;100.00;101219.23;1970763;72;31070;-77
2021/07/03 10:28:42;;;;;;;9.60;8.70;;;;;;;20.63;100.00;101208.31;1970525;72;30969;-73
2021/07/03 10:34:08;;;;;;;10.07;9.00;;;;;;;20.84;100.00;101209.72;1970500;73;30940;-73
2021/07/03 10:39:34;;;;;;;10.40;8.37;;;;;;;20.96;100.00;101207.55;1970867;73;31680;-74
2021/07/03 10:45:11;;;;;;;10.37;9.37;;;;;;;21.18;100.00;101203.77;1972102;73;31490;-76
2021/07/03 10:50:35;;;;;;;9.57;8.57;;;;;;;21.55;100.00;101186.33;1970740;72;31441;-75
2021/07/03 10:56:10;;;;;;;10.07;9.07;;;;;;;21.83;100.00;101189.28;1970577;72;31536;-73
2021/07/03 11:01:36;;;;;;;9.17;8.27;;;;;;;22.01;100.00;101181.42;1970788;73;31513;-72
2021/07/03 11:07:16;;;;;;;10.10;7.37;;;;;;;22.03;100.00;101160.10;1970763;72;30988;-78
2021/07/03 11:12:50;;;;;;;9.20;8.25;;;;;;;22.18;100.00;101157.12;1970586;72;31080;-73
2021/07/03 11:18:15;;;;;;;8.30;7.47;;;;;;;22.38;100.00;101151.87;1970463;72;30932;-73
2021/07/03 11:23:40;;;;;;;8.78;7.85;;;;;;;22.46;100.00;101155.16;1970667;72;31164;-77
2021/07/03 11:29:05;;;;;;;10.53;8.83;;;;;;;22.37;100.00;101150.25;1970810;72;31002;-73
2021/07/03 11:34:29;;;;;;;8.90;8.00;;;;;;;22.34;100.00;101158.61;1970870;73;31434;-73
2021/07/03 11:39:55;;;;;;;15.45;8.58;;;;;;;22.21;100.00;101153.56;1970662;72;31068;-73
2021/07/03 11:45:27;;;;;;;6.95;6.35;;;;;;;22.22;100.00;101153.81;1972162;72;30927;-79
2021/07/03 11:51:01;;;;;;;7.28;6.58;;;;;;;22.37;100.00;101152.26;1970746;73;31070;-78
2021/07/03 11:56:26;;;;;;;5.70;5.20;;;;;;;22.40;100.00;101155.19;1970788;72;31080;-73
2021/07/03 12:01:55;;;;;;;6.22;5.62;;;;;;;22.54;100.00;101136.41;1970853;72;30974;-73
2021/07/03 12:07:23;;;;;;;6.20;5.62;;;;;;;22.58;100.00;101145.83;1970496;72;31004;-72
2021/07/03 12:12:55;;;;;;;5.50;5.03;;;;;;;22.57;100.00;101139.92;1970541;72;30938;-78
2021/07/03 12:18:28;;;;;;;4.83;4.37;;;;;;;23.09;100.00;101130.75;1970588;73;31057;-73
2021/07/03 12:24:03;;;;;;;4.45;4.10;;;;;;;22.83;100.00;101125.33;1971025;72;31128;-74
2021/07/03 12:29:36;;;;;;;4.58;3.75;;;;;;;22.79;100.00;101132.91;1970939;72;31521;-74
2021/07/03 12:35:17;;;;;;;5.30;4.80;;;;;;;22.46;100.00;101094.29;1970666;73;31003;-74
2021/07/03 12:40:43;;;;;;;3.70;3.40;;;;;;;22.65;100.00;101131.86;1970463;72;31033;-75
2021/07/03 12:46:09;;;;;;;4.80;4.30;;;;;;;22.60;100.00;101132.11;1970827;73;31553;-72
2021/07/03 12:51:36;;;;;;;5.40;4.83;;;;;;;22.50;100.00;101136.89;1970912;72;31406;-75
2021/07/03 12:57:01;;;;;;;4.50;4.20;;;;;;;22.14;100.00;101133.55;1970633;72;31630;-77
2021/07/03 13:02:29;;;;;;;4.45;3.62;;;;;;;22.02;100.00;101136.41;1970626;72;31136;-75
2021/07/03 13:07:54;;;;;;;3.17;2.98;;;;;;;21.84;100.00;101138.62;1970659;73;31423;-76
2021/07/03 13:13:25;;;;;;;4.03;3.12;;;;;;;21.87;100.00;101134.25;1970876;72;31450;-75
2021/07/03 13:18:50;;;;;;;3.95;3.60;;;;;;;21.90;100.00;101138.63;1970898;72;31568;-75
2021/07/03 13:27:06;;;;;;;4.85;3.40;;;;;;;22.18;100.00;101138.14;1975340;72;30758;-74
2021/07/03 13:29:37;;;;;;;3.47;3.17;;;;;;;22.42;100.00;101133.61;1950360;73;24175;-73
2021/07/03 13:32:08;;;;;;;3.92;3.42;;;;;;;22.68;100.00;101130.55;1950622;73;24658;-74
2021/07/03 13:34:38;;;;;;;4.12;3.20;;;;;;;22.45;100.00;101124.39;1950623;73;24129;-75
2021/07/03 13:37:08;;;;;;;3.85;3.47;;;;;;;22.66;100.00;101132.11;1950608;73;24116;-74
2021/07/03 13:39:38;;;;;;;4.15;3.30;;;;;;;22.66;100.00;101115.94;1950670;73;24116;-74
2021/07/03 13:42:08;;;;;;;3.67;3.37;;;;;;;22.59;100.00;101128.45;1950499;73;24641;-74
2021/07/03 13:44:38;;;;;;;3.57;3.27;;;;;;;22.62;100.00;101128.34;1950577;73;24124;-74
2021/07/03 13:47:09;;;;;;;3.52;3.22;;;;;;;22.73;100.00;101120.17;1950731;73;24214;-74
2021/07/03 13:49:39;;;;;;;4.05;3.62;;;;;;;22.45;100.00;101126.64;1950835;73;24112;-73
2021/07/03 13:52:09;;;;;;;4.47;3.83;;;;;;;22.62;100.00;101124.09;1950492;73;24129;-74
2021/07/03 13:54:39;;;;;;;3.85;3.50;;;;;;;22.40;100.00;101134.55;1950640;73;24124;-74
2021/07/03 13:57:10;;;;;;;3.52;3.22;;;;;;;22.26;100.00;101132.10;1950636;73;24172;-73
2021/07/03 13:59:40;;;;;;;4.42;3.83;;;;;;;22.48;100.00;101125.08;1950459;73;24164;-74
2021/07/03 14:02:10;;;;;;;4.42;3.85;;;;;;;22.56;100.00;101126.35;1950774;73;24204;-74
2021/07/03 14:04:40;;;;;;;4.12;3.72;;;;;;;22.42;100.00;101120.25;1950571;73;24176;-74
2021/07/03 14:07:10;;;;;;;4.17;3.72;;;;;;;22.65;100.00;101122.78;1950525;73;24470;-74
2021/07/03 14:09:51;;;;;;;4.33;3.22;;;;;;;22.38;100.00;101121.36;1950289;73;24387;-73
2021/07/03 14:12:21;;;;;;;3.58;3.27;;;;;;;22.46;100.00;101117.56;1950517;73;24237;-75
2021/07/03 14:17:54;;;;;;;4.10;3.70;;;;;;;22.27;100.00;101118.19;1970803;72;30972;-73
2021/07/03 14:23:18;;;;;;;4.85;3.52;;;;;;;22.22;100.00;101118.44;1971040;72;31000;-74
2021/07/03 14:28:43;;;;;;;5.53;3.83;;;;;;;22.25;100.00;101127.03;1970666;73;31085;-74
2021/07/03 14:34:08;;;;;;;4.35;3.90;;;;;;;21.70;100.00;101140.38;1970733;73;30945;-74
2021/07/03 14:39:33;;;;;;;4.92;4.03;;;;;;;21.75;100.00;101133.67;1970981;72;31087;-74
2021/07/03 14:44:57;;;;;;;6.50;4.33;;;;;;;21.69;100.00;101135.90;1971123;72;31549;-72
2021/07/03 14:50:22;;;;;;;5.97;4.17;;;;;;;21.83;100.00;101124.82;1970674;72;31046;-77
2021/07/03 14:55:47;;;;;;;4.10;3.70;;;;;;;22.38;100.00;101127.02;1970525;72;31207;-72
2021/07/03 15:01:11;;;;;;;4.70;3.30;;;;;;;22.24;100.00;101123.16;1970823;72;31518;-75
2021/07/03 15:06:55;;;;;;;4.00;3.60;;;;;;;22.21;100.00;101113.95;1946325;74;31516;-72
2021/07/03 15:12:19;;;;;;;3.62;3.33;;;;;;;22.28;100.00;101118.44;1970899;72;31066;-76
2021/07/03 15:17:45;;;;;;;4.12;3.60;;;;;;;22.05;100.00;101118.12;1970840;73;30933;-73
2021/07/03 15:23:11;;;;;;;3.75;2.90;;;;;;;22.37;100.00;101102.72;1970967;72;31644;-76
2021/07/03 15:28:35;;;;;;;2.92;2.62;;;;;;;22.35;100.00;101104.48;1970740;72;30928;-75
2021/07/03 15:34:00;;;;;;;2.62;2.42;;;;;;;22.51;100.00;101099.70;1970638;72;31028;-77
2021/07/03 15:39:25;;;;;;;2.90;2.60;;;;;;;22.63;100.00;101095.40;1970969;73;31382;-75
2021/07/03 15:44:49;;;;;;;2.80;2.60;;;;;;;22.44;100.00;101096.67;1970830;73;31622;-74
2021/07/03 15:50:15;;;;;;;2.93;2.50;;;;;;;21.87;100.00;101104.55;1970919;72;30931;-73
2021/07/03 15:55:40;;;;;;;6.53;3.33;;;;;;;22.03;100.00;101102.70;1970863;72;31472;-76
2021/07/03 16:01:07;;;;;;;3.00;2.70;;;;;;;22.43;100.00;101080.86;1970811;72;31453;-74
2021/07/03 16:06:31;;;;;;;2.90;2.55;;;;;;;22.31;100.00;101087.16;1970638;72;30994;-75
2021/07/03 16:11:55;;;;;;;3.05;2.85;;;;;;;22.32;100.00;101074.08;1970844;72;31417;-79
2021/07/03 16:17:19;;;;;;;4.85;2.98;;;;;;;22.49;100.00;101069.53;1970746;73;31027;-79
2021/07/03 16:22:44;;;;;;;2.47;2.27;;;;;;;22.64;100.00;101059.41;1970608;72;31018;-74
2021/07/03 16:28:09;;;;;;;7.62;6.92;;;;;;;22.69;100.00;101047.27;1970723;72;31467;-76
2021/07/03 16:33:34;;;;;;;2.62;2.40;;;;;;;22.81;100.00;101046.37;1970766;73;30945;-71
2021/07/03 16:38:59;;;;;;;3.08;2.33;;;;;;;22.86;100.00;101031.12;1970542;72;31057;-73
2021/07/03 16:44:23;;;;;;;2.55;2.15;;;;;;;22.97;100.00;101018.08;1970629;73;31051;-78
2021/07/03 16:49:48;;;;;;;2.45;2.02;;;;;;;22.90;100.00;101020.11;1970725;72;31025;-77
2021/07/03 16:55:13;;;;;;;2.10;1.90;;;;;;;22.79;100.00;101007.69;1865598;77;31267;-73
2021/07/03 17:00:37;;;;;;;2.17;2.08;;;;;;;22.63;100.00;101010.45;1970710;72;30920;-77
2021/07/03 17:06:02;;;;;;;2.98;2.00;;;;;;;22.48;100.00;101014.67;1970582;73;31022;-75
2021/07/03 17:11:26;;;;;;;2.42;2.22;;;;;;;22.22;100.00;101015.97;1970598;73;30973;-76
2021/07/03 17:16:51;;;;;;;2.83;2.50;;;;;;;22.01;100.00;101013.10;1970616;72;30922;-73
2021/07/03 17:22:16;;;;;;;3.25;2.50;;;;;;;22.22;100.00;101008.07;1943157;72;30928;-78
2021/07/03 17:27:41;;;;;;;5.97;3.35;;;;;;;22.64;100.00;101007.85;1970869;73;31033;-74
2021/07/03 17:33:07;;;;;;;3.65;2.85;;;;;;;22.55;100.00;101016.28;1970642;73;30954;-76
2021/07/03 17:38:32;;;;;;;4.35;2.60;;;;;;;22.43;100.00;101016.34;1970667;72;31188;-74
2021/07/03 17:43:56;;;;;;;3.25;2.40;;;;;;;22.22;100.00;101015.14;1970886;73;31541;-73
2021/07/03 17:49:20;;;;;;;3.45;2.85;;;;;;;22.03;100.00;101018.66;1970618;72;31024;-78
2021/07/03 17:54:45;;;;;;;3.83;3.25;;;;;;;22.35;100.00;101012.50;1970968;72;31019;-78
2021/07/03 18:00:12;;;;;;;4.28;3.87;;;;;;;22.27;100.00;101014.89;1970913;72;31453;-72
2021/07/03 18:05:38;;;;;;;5.25;4.00;;;;;;;22.05;100.00;101011.20;1970732;73;31062;-72
2021/07/03 18:11:02;;;;;;;4.78;4.15;;;;;;;21.59;100.00;101024.72;1971158;72;31009;-72
2021/07/03 18:16:26;;;;;;;5.50;3.60;;;;;;;21.30;100.00;101027.80;1970882;73;30981;-73
2021/07/03 18:21:51;;;;;;;3.70;2.65;;;;;;;21.46;100.00;101034.39;1948500;73;30935;-77
2021/07/03 18:27:15;;;;;;;3.10;2.73;;;;;;;21.40;100.00;101030.72;1970683;72;31103;-77
2021/07/03 18:32:41;;;;;;;3.60;2.92;;;;;;;21.28;100.00;101037.20;1970706;72;31512;-73
2021/07/03 18:38:06;;;;;;;4.57;2.97;;;;;;;21.07;100.00;101030.22;1970862;72;31421;-77
2021/07/03 18:43:31;;;;;;;4.25;2.60;;;;;;;20.92;100.00;101036.57;1970478;72;31030;-73
2021/07/03 18:48:56;;;;;;;4.67;2.50;;;;;;;20.68;100.00;101039.32;1970859;73;31586;-73
2021/07/03 18:54:20;;;;;;;4.50;2.33;;;;;;;20.58;100.00;101035.55;1970832;72;31438;-73
2021/07/03 18:59:45;;;;;;;4.40;2.40;;;;;;;20.71;100.00;101038.03;1970610;72;31542;-73
2021/07/03 19:05:11;;;;;;;2.67;2.13;;;;;;;20.67;100.00;101027.20;1970807;72;30992;-72
2021/07/03 19:10:37;;;;;;;4.55;2.17;;;;;;;20.72;100.00;101038.28;1970545;73;31072;-77
2021/07/03 19:16:01;;;;;;;2.43;1.60;;;;;;;20.67;100.00;101038.49;1970736;72;31449;-77
2021/07/03 19:21:45;;;;;;;3.17;1.90;;;;;;;20.65;100.00;101038.03;1918232;74;31093;-72
2021/07/03 19:27:10;;;;;;;3.27;2.40;;;;;;;20.61;100.00;101046.13;1970338;73;30907;-72
2021/07/03 19:32:34;;;;;;;2.30;1.93;;;;;;;20.44;100.00;101059.83;1970744;72;31452;-71
2021/07/03 19:38:01;;;;;;;1.90;1.80;;;;;;;20.46;100.00;101047.59;1970473;73;31157;-77
2021/07/03 19:43:26;;;;;;;3.30;2.23;;;;;;;20.31;100.00;101055.30;1970666;72;31029;-78
2021/07/03 19:48:50;;;;;;;2.23;1.93;;;;;;;20.22;100.00;101054.52;1970468;72;30936;-70
2021/07/03 19:54:14;;;;;;;10.33;6.97;;;;;;;20.20;100.00;101055.44;1970478;72;33436;-78
2021/07/03 19:59:41;;;;;;;2.67;2.23;;;;;;;20.16;100.00;101058.13;1970400;73;31402;-77
2021/07/03 20:05:25;;;;;;;3.23;2.17;;;;;;;20.16;100.00;101043.20;1946520;74;31539;-76
2021/07/03 20:11:09;;;;;;;3.40;2.47;;;;;;;20.19;100.00;101052.41;1946185;74;31466;-77
2021/07/03 20:16:54;;;;;;;3.07;2.17;;;;;;;20.15;100.00;101052.86;1946098;74;31055;-71
2021/07/03 20:22:19;;;;;;;4.03;2.40;;;;;;;19.87;100.00;101059.03;1958573;71;30990;-75
2021/07/03 20:27:44;;;;;;;3.60;2.43;;;;;;;19.83;100.00;101056.66;1970759;72;30982;-72
2021/07/03 20:33:15;;;;;;;3.10;2.10;;;;;;;19.91;100.00;101067.04;1970602;72;30920;-76
2021/07/03 20:38:41;;;;;;;2.10;1.70;;;;;;;19.84;100.00;101078.05;1970315;72;30895;-76
2021/07/03 20:44:05;;;;;;;4.17;2.40;;;;;;;19.85;100.00;101069.01;1954388;72;28007;-73
2021/07/03 20:49:30;;;;;;;3.23;2.10;;;;;;;19.73;100.00;101073.95;1970694;73;31031;-79
2021/07/03 20:54:57;;;;;;;3.03;2.10;;;;;;;19.62;100.00;101071.30;1972454;72;31509;-78
2021/07/03 21:00:22;;;;;;;4.33;2.10;;;;;;;19.64;100.00;101062.52;1970867;72;33175;-71
2021/07/03 21:05:46;;;;;;;2.53;2.33;;;;;;;19.43;100.00;101059.05;1970501;72;31011;-77
2021/07/03 21:11:11;;;;;;;4.47;2.67;;;;;;;19.19;100.00;101066.44;1970551;73;31143;-80
2021/07/03 21:16:36;;;;;;;2.80;2.60;;;;;;;19.18;100.00;101076.05;1970796;73;31034;-75
2021/07/03 21:22:00;;;;;;;4.63;2.60;;;;;;;19.02;100.00;101070.98;1946211;73;30955;-71
2021/07/03 21:27:24;;;;;;;4.10;2.40;;;;;;;18.76;100.00;101075.86;1970759;72;33385;-70
2021/07/03 21:32:49;;;;;;;3.93;2.93;;;;;;;18.82;100.00;101086.36;1970573;72;33500;-71
2021/07/03 21:38:15;;;;;;;4.57;2.40;;;;;;;18.81;100.00;101088.92;1970680;72;30992;-71
2021/07/03 21:43:42;;;;;;;3.80;3.40;;;;;;;18.76;100.00;101093.31;1970827;72;30990;-70
2021/07/03 21:49:05;;;;;;;4.20;3.23;;;;;;;18.88;100.00;101096.27;1970379;72;33430;-72
2021/07/03 21:54:31;;;;;;;5.40;3.40;;;;;;;18.89;100.00;101089.48;1970519;72;31065;-77
2021/07/03 21:59:55;;;;;;;3.97;3.00;;;;;;;18.93;100.00;101084.83;1970634;73;31053;-76
2021/07/03 22:05:20;;;;;;;5.27;3.03;;;;;;;18.93;100.00;101089.05;1970657;73;30987;-74
2021/07/03 22:10:46;;;;;;;5.27;3.20;;;;;;;18.95;100.00;101074.91;1970690;72;30982;-73
2021/07/03 22:16:11;;;;;;;6.07;3.47;;;;;;;18.87;100.00;101082.77;1970769;72;30994;-77
2021/07/03 22:21:35;;;;;;;8.90;4.30;;;;;;;18.83;100.00;101078.14;1970672;71;30995;-79
2021/07/03 22:26:58;;;;;;;6.67;4.40;;;;;;;18.73;100.00;101075.70;1970648;73;31277;-78
2021/07/03 22:32:22;;;;;;;6.77;5.00;;;;;;;18.70;100.00;101065.13;1970652;73;31001;-79
2021/07/03 22:37:47;;;;;;;8.27;5.57;;;;;;;18.52;100.00;101077.82;1970819;73;31471;-73
2021/07/03 22:43:13;;;;;;;7.47;6.17;;;;;;;18.39;100.00;101067.54;1970727;73;31004;-73
2021/07/03 22:48:44;;;;;;;6.93;6.30;;;;;;;18.35;100.00;101068.53;1970674;72;31136;-79
2021/07/03 22:54:09;;;;;;;9.43;6.03;;;;;;;18.30;100.00;101072.92;1970695;72;31073;-73
2021/07/03 22:59:34;;;;;;;9.23;7.50;;;;;;;18.06;100.00;101077.04;1971215;72;31060;-73
2021/07/03 23:04:58;;;;;;;10.63;7.47;;;;;;;17.96;100.00;101073.17;1970923;73;31529;-79
2021/07/03 23:10:27;;;;;;;8.83;7.80;;;;;;;17.99;100.00;101064.64;1971080;72;33386;-74
2021/07/03 23:15:52;;;;;;;9.80;8.20;;;;;;;17.82;100.00;101073.05;1971009;72;31562;-73
2021/07/03 23:21:16;;;;;;;8.83;8.03;;;;;;;17.64;100.00;101075.83;1970608;73;31144;-79
2021/07/03 23:26:40;;;;;;;10.87;9.07;;;;;;;17.69;100.00;101070.06;1971005;73;31488;-73
2021/07/03 23:32:06;;;;;;;11.33;10.30;;;;;;;17.58;100.00;101077.16;1971149;72;31578;-73
2021/07/03 23:37:30;;;;;;;12.00;9.40;;;;;;;17.53;100.00;101073.06;1970708;73;32999;-79
2021/07/03 23:42:54;;;;;;;11.27;10.17;;;;;;;17.40;100.00;101066.16;1970637;72;31020;-79
2021/07/03 23:48:21;;;;;;;12.17;10.87;;;;;;;17.39;100.00;101065.90;1970804;73;31015;-79
2021/07/03 23:53:46;;;;;;;12.00;10.70;;;;;;;17.24;100.00;101065.19;1970756;72;32097;-79
2021/07/03 23:59:10;;;;;;;11.83;10.53;;;;;;;17.27;100.00;101053.89;1970726;72;33342;-72
